Time;durP1;ratioP1;P1;durP2;ratioP2;P2;SDS_P1;SDS_P2;PMS_P1;PMS_P2;Temp;Humidity;BMP_temperature;BMP_pressure;BME280_temperature;BME280_humidity;BME280_pressure;Samples;Min_cycle;Max_cycle;Signal;HPM_P1;HPM_P2
2023/08/19 00:01:07;;;;;;;7.32;5.20;;;;;;;-143.16;100.00;59067.41;4932890;29;20215;-75
2023/08/19 00:03:35;;;;;;;8.50;5.30;;;;;;;-143.16;100.00;59067.41;4933195;29;20203;-74
2023/08/19 00:06:11;;;;;;;6.90;5.10;;;;;;;-143.16;100.00;59067.41;4933141;29;20207;-74
2023/08/19 00:08:37;;;;;;;8.13;5.00;;;;;;;-143.16;100.00;59067.41;4924270;29;20587;-74
2023/08/19 00:11:04;;;;;;;8.02;4.90;;;;;;;-143.16;100.00;59067.41;4929979;29;20218;-74
2023/08/19 00:13:31;;;;;;;8.63;5.22;;;;;;;-143.16;100.00;59067.41;4932836;29;20725;-74
2023/08/19 00:15:58;;;;;;;6.57;5.38;;;;;;;-143.16;100.00;59067.41;4933054;29;20215;-74
2023/08/19 00:18:24;;;;;;;8.48;5.18;;;;;;;-143.16;100.00;59067.41;4931029;29;20290;-74
2023/08/19 00:20:51;;;;;;;7.93;5.30;;;;;;;-143.16;100.00;59067.41;4926559;29;20214;-74
2023/08/19 00:23:17;;;;;;;9.45;5.35;;;;;;;-143.16;100.00;59067.41;4933162;29;20202;-74
2023/08/19 00:25:44;;;;;;;7.38;5.03;;;;;;;-143.16;100.00;59067.41;4932766;29;20202;-74
2023/08/19 00:28:10;;;;;;;11.23;4.93;;;;;;;-143.16;100.00;59067.41;4929789;29;20237;-74
2023/08/19 00:30:37;;;;;;;7.70;5.18;;;;;;;-143.16;100.00;59067.41;4915032;29;20227;-74
2023/08/19 00:33:03;;;;;;;7.85;5.32;;;;;;;-143.16;100.00;59067.41;4932157;29;20215;-74
2023/08/19 00:35:32;;;;;;;7.13;4.40;;;;;;;-143.16;100.00;59067.41;4932888;29;20203;-74
2023/08/19 00:37:59;;;;;;;9.50;5.53;;;;;;;-143.16;100.00;59067.41;4932610;29;20878;-74
2023/08/19 00:40:25;;;;;;;10.23;4.93;;;;;;;-143.16;100.00;59067.41;4922307;29;20478;-74
2023/08/19 00:42:51;;;;;;;8.57;5.30;;;;;;;-143.16;100.00;59067.41;4930062;29;20207;-74
2023/08/19 00:45:18;;;;;;;10.98;5.22;;;;;;;-143.16;100.00;59067.41;4931641;29;20266;-74
2023/08/19 00:47:45;;;;;;;7.50;5.30;;;;;;;-143.16;100.00;59067.41;4932973;29;20576;-74
2023/08/19 00:50:13;;;;;;;5.93;4.80;;;;;;;-143.16;100.00;59067.41;4922458;29;20230;-74
2023/08/19 00:52:40;;;;;;;7.82;4.88;;;;;;;-143.16;100.00;59067.41;4927638;29;20733;-74
2023/08/19 00:55:07;;;;;;;7.97;4.78;;;;;;;-143.16;100.00;59067.41;4932381;29;20754;-74
2023/08/19 00:57:35;;;;;;;8.25;4.70;;;;;;;-143.16;100.00;59067.41;4932909;29;20663;-74
2023/08/19 01:00:03;;;;;;;8.75;4.97;;;;;;;-143.16;100.00;59067.41;4931469;29;20226;-74
2023/08/19 01:02:30;;;;;;;9.65;4.75;;;;;;;-143.16;100.00;59067.41;4930980;29;20213;-74
2023/08/19 01:04:57;;;;;;;8.80;5.18;;;;;;;-143.16;100.00;59067.41;4932380;29;20203;-74
2023/08/19 01:07:41;;;;;;;8.13;5.20;;;;;;;-143.16;100.00;59067.41;4932819;29;20829;-74
2023/08/19 01:10:19;;;;;;;8.35;4.57;;;;;;;-143.16;100.00;59067.41;4926067;29;20622;-74
2023/08/19 01:13:13;;;;;;;8.15;5.43;;;;;;;-143.16;100.00;59067.41;4922855;29;20229;-74
2023/08/19 01:16:18;;;;;;;12.07;5.35;;;;;;;-143.16;100.00;59067.41;4932516;29;20234;-74
2023/08/19 01:18:45;;;;;;;9.77;5.60;;;;;;;-143.16;100.00;59067.41;4925190;29;20612;-74
2023/08/19 01:21:12;;;;;;;8.20;4.90;;;;;;;-143.16;100.00;59067.41;4935576;29;20494;-74
2023/08/19 01:23:46;;;;;;;9.27;4.60;;;;;;;-143.16;100.00;59067.41;4933392;29;20213;-74
2023/08/19 01:26:13;;;;;;;10.18;5.15;;;;;;;-143.16;100.00;59067.41;4936049;29;20580;-74
2023/08/19 01:28:39;;;;;;;7.43;4.90;;;;;;;-143.16;100.00;59067.41;4936155;29;20209;-74
2023/08/19 01:31:05;;;;;;;7.30;5.28;;;;;;;-143.16;100.00;59067.41;4931146;29;20206;-74
2023/08/19 01:33:33;;;;;;;6.28;4.80;;;;;;;-143.16;100.00;59067.41;4923613;29;20226;-74
2023/08/19 01:36:22;;;;;;;6.65;5.22;;;;;;;-143.16;100.00;59067.41;4935901;29;20229;-74
2023/08/19 01:38:58;;;;;;;11.90;4.90;;;;;;;-143.16;100.00;59067.41;4935843;29;20227;-74
2023/08/19 01:41:29;;;;;;;7.45;4.53;;;;;;;-143.16;100.00;59067.41;4927663;29;20690;-74
2023/08/19 01:44:00;;;;;;;5.93;4.70;;;;;;;-143.16;100.00;59067.41;4931762;29;20217;-74
2023/08/19 01:46:26;;;;;;;6.40;4.95;;;;;;;-143.16;100.00;59067.41;4935963;29;20230;-74
2023/08/19 01:48:53;;;;;;;8.50;5.10;;;;;;;-143.16;100.00;59067.41;4935523;29;20698;-74
2023/08/19 01:51:20;;;;;;;8.35;4.70;;;;;;;-143.16;100.00;59067.41;4935650;29;20211;-74
2023/08/19 01:53:46;;;;;;;7.80;4.70;;;;;;;-143.16;100.00;59067.41;4933221;29;20897;-74
2023/08/19 01:56:12;;;;;;;8.70;4.50;;;;;;;-143.16;100.00;59067.41;4934579;29;20294;-74
2023/08/19 01:58:39;;;;;;;6.10;5.20;;;;;;;-143.16;100.00;59067.41;4927805;29;20212;-74
2023/08/19 02:01:15;;;;;;;6.28;4.68;;;;;;;-143.16;100.00;59067.41;4910369;29;20203;-74
2023/08/19 02:03:41;;;;;;;10.63;4.53;;;;;;;-143.16;100.00;59067.41;4935502;29;20207;-74
2023/08/19 02:06:08;;;;;;;10.27;4.53;;;;;;;-143.16;100.00;59067.41;4934937;29;20293;-74
2023/08/19 02:08:34;;;;;;;7.55;4.95;;;;;;;-143.16;100.00;59067.41;4933768;29;20581;-74
2023/08/19 02:11:01;;;;;;;6.45;4.80;;;;;;;-143.16;100.00;59067.41;4935076;29;20269;-74
2023/08/19 02:13:27;;;;;;;7.07;4.63;;;;;;;-143.16;100.00;59067.41;4935640;29;20699;-74
2023/08/19 02:15:53;;;;;;;8.20;4.45;;;;;;;-143.16;100.00;59067.41;4934834;29;20299;-74
2023/08/19 02:18:22;;;;;;;8.63;4.82;;;;;;;-143.16;100.00;59067.41;4934018;29;20643;-74
2023/08/19 02:20:48;;;;;;;6.15;4.40;;;;;;;-143.16;100.00;59067.41;4935119;29;20214;-74
2023/08/19 02:23:15;;;;;;;7.35;4.30;;;;;;;-143.16;100.00;59067.41;4935091;29;20206;-74
2023/08/19 02:25:41;;;;;;;7.25;4.43;;;;;;;-143.16;100.00;59067.41;4934232;29;20203;-74
2023/08/19 02:28:07;;;;;;;5.70;4.55;;;;;;;-143.16;100.00;59067.41;4933349;29;20790;-74
2023/08/19 02:30:36;;;;;;;8.93;4.45;;;;;;;-143.16;100.00;59067.41;4934612;29;20303;-74
2023/08/19 02:33:06;;;;;;;6.15;4.22;;;;;;;-143.16;100.00;59067.41;4934778;29;20223;-74
2023/08/19 02:35:33;;;;;;;8.20;4.50;;;;;;;-143.16;100.00;59067.41;4929980;29;20303;-74
2023/08/19 02:37:59;;;;;;;8.60;4.65;;;;;;;-143.16;100.00;59067.41;4931533;29;20207;-74
2023/08/19 02:40:29;;;;;;;11.55;4.93;;;;;;;-143.16;100.00;59067.41;4934592;29;20581;-74
2023/08/19 02:42:56;;;;;;;8.00;4.93;;;;;;;-143.16;100.00;59067.41;4934720;29;20211;-74
2023/08/19 02:45:22;;;;;;;9.82;4.60;;;;;;;-143.16;100.00;59067.41;4934588;29;20726;-74
2023/08/19 02:47:49;;;;;;;7.55;4.70;;;;;;;-143.16;100.00;59067.41;4933904;29;20217;-74
2023/08/19 02:50:15;;;;;;;9.13;4.43;;;;;;;-143.16;100.00;59067.41;4932678;29;20230;-74
2023/08/19 02:52:42;;;;;;;8.30;4.60;;;;;;;-143.16;100.00;59067.41;4934411;29;20660;-74
2023/08/19 02:55:08;;;;;;;8.27;4.70;;;;;;;-143.16;100.00;59067.41;4934315;29;20207;-74
2023/08/19 02:57:34;;;;;;;9.25;5.05;;;;;;;-143.16;100.00;59067.41;4933985;29;20641;-74
2023/08/19 03:00:01;;;;;;;7.40;4.35;;;;;;;-143.16;100.00;59067.41;4932857;29;20250;-74
2023/08/19 03:02:27;;;;;;;9.00;4.65;;;;;;;-143.16;100.00;59067.41;4934129;29;20206;-74
2023/08/19 03:04:54;;;;;;;10.48;4.70;;;;;;;-143.16;100.00;59067.41;4934133;29;20417;-74
2023/08/19 03:07:20;;;;;;;10.77;4.82;;;;;;;-143.16;100.00;59067.41;4929866;29;20212;-74
2023/08/19 03:09:47;;;;;;;7.85;5.28;;;;;;;-143.16;100.00;59067.41;4928765;29;20233;-74
2023/08/19 03:12:13;;;;;;;5.20;4.28;;;;;;;-143.16;100.00;59067.41;4934118;29;20209;-74
2023/08/19 03:14:40;;;;;;;6.55;4.45;;;;;;;-143.16;100.00;59067.41;4934102;29;20294;-74
2023/08/19 03:17:06;;;;;;;7.50;4.63;;;;;;;-143.16;100.00;59067.41;4934224;29;20207;-74
2023/08/19 03:19:33;;;;;;;7.25;4.57;;;;;;;-143.16;100.00;59067.41;4931851;29;20284;-74
2023/08/19 03:21:59;;;;;;;6.40;4.20;;;;;;;-143.16;100.00;59067.41;4933989;29;20315;-74
2023/08/19 03:24:27;;;;;;;7.75;4.53;;;;;;;-143.16;100.00;59067.41;4934284;29;20218;-74
2023/08/19 03:26:53;;;;;;;7.35;4.40;;;;;;;-143.16;100.00;59067.41;4934002;29;20663;-74
2023/08/19 03:29:19;;;;;;;8.98;4.43;;;;;;;-143.16;100.00;59067.41;4932387;29;20235;-74
2023/08/19 03:31:46;;;;;;;8.93;4.50;;;;;;;-143.16;100.00;59067.41;4933803;29;20213;-74
2023/08/19 03:34:12;;;;;;;8.82;4.43;;;;;;;-143.16;100.00;59067.41;4933328;29;20223;-74
2023/08/19 03:36:39;;;;;;;6.40;4.43;;;;;;;-143.16;100.00;59067.41;4934001;29;20290;-74
2023/08/19 03:39:05;;;;;;;7.28;4.07;;;;;;;-143.16;100.00;59067.41;4931308;29;20739;-74
2023/08/19 03:41:31;;;;;;;9.15;4.97;;;;;;;-143.16;100.00;59067.41;4933164;29;20207;-74
2023/08/19 03:43:58;;;;;;;7.22;4.82;;;;;;;-143.16;100.00;59067.41;4933156;29;20209;-74
2023/08/19 03:46:24;;;;;;;8.18;4.90;;;;;;;-143.16;100.00;59067.41;4933479;29;20210;-74
2023/08/19 03:48:51;;;;;;;8.00;4.43;;;;;;;-143.16;100.00;59067.41;4933204;29;20219;-74
2023/08/19 03:51:17;;;;;;;8.00;5.20;;;;;;;-143.16;100.00;59067.41;4932114;29;20199;-74
2023/08/19 03:53:43;;;;;;;10.85;4.93;;;;;;;-143.16;100.00;59067.41;4933353;29;20229;-74
2023/08/19 03:56:10;;;;;;;10.07;4.78;;;;;;;-143.16;100.00;59067.41;4933359;29;20203;-74
2023/08/19 03:58:36;;;;;;;7.40;4.80;;;;;;;-143.16;100.00;59067.41;4932910;29;20203;-74
2023/08/19 04:01:07;;;;;;;8.35;5.63;;;;;;;-143.16;100.00;59067.41;4931404;29;20203;-74
2023/08/19 04:03:34;;;;;;;7.68;5.13;;;;;;;-143.16;100.00;59067.41;4933060;29;20199;-74
2023/08/19 04:06:00;;;;;;;9.35;5.10;;;;;;;-143.16;100.00;59067.41;4933228;29;20574;-74
2023/08/19 04:08:27;;;;;;;8.88;5.03;;;;;;;-143.16;100.00;59067.41;4932970;29;20203;-74
2023/08/19 04:10:53;;;;;;;6.50;4.60;;;;;;;-143.16;100.00;59067.41;5000338;23;20220;-69
2023/08/19 04:13:20;;;;;;;7.43;4.60;;;;;;;-143.16;100.00;59067.41;4990584;28;20717;-71
2023/08/19 04:15:47;;;;;;;6.03;4.78;;;;;;;-143.16;100.00;59067.41;4991256;28;20587;-72
2023/08/19 04:18:13;;;;;;;7.03;4.93;;;;;;;-143.16;100.00;59067.41;4988872;28;20836;-71
2023/08/19 04:20:40;;;;;;;9.32;5.10;;;;;;;-143.16;100.00;59067.41;4993554;28;20272;-71
2023/08/19 04:23:06;;;;;;;7.80;4.63;;;;;;;-143.16;100.00;59067.41;5010106;28;20210;-70
2023/08/19 04:25:33;;;;;;;6.55;4.80;;;;;;;-143.16;100.00;59067.41;4996392;28;20201;-70
2023/08/19 04:27:59;;;;;;;7.05;4.50;;;;;;;-143.16;100.00;59067.41;4991010;28;20284;-70
2023/08/19 04:30:26;;;;;;;7.65;4.78;;;;;;;-143.16;100.00;59067.41;4990831;28;20336;-71
2023/08/19 04:32:52;;;;;;;6.78;4.80;;;;;;;-143.16;100.00;59067.41;5004270;28;20204;-70
2023/08/19 04:35:19;;;;;;;10.75;4.78;;;;;;;-143.16;100.00;59067.41;5006468;28;20212;-71
2023/08/19 04:37:45;;;;;;;13.77;5.03;;;;;;;-143.16;100.00;59067.41;4991102;28;20204;-71
2023/08/19 04:40:12;;;;;;;8.60;4.78;;;;;;;-143.16;100.00;59067.41;4990433;28;20216;-70
2023/08/19 04:42:38;;;;;;;10.40;4.80;;;;;;;-143.16;100.00;59067.41;4998407;28;20200;-70
2023/08/19 04:45:05;;;;;;;7.57;5.18;;;;;;;-143.16;100.00;59067.41;5008006;28;20545;-70
2023/08/19 04:47:35;;;;;;;6.22;4.65;;;;;;;-143.16;100.00;59067.41;4973737;28;20431;-70
2023/08/19 04:50:07;;;;;;;9.77;5.13;;;;;;;-143.16;100.00;59067.41;4990194;28;20604;-70
2023/08/19 04:52:35;;;;;;;7.80;4.68;;;;;;;-143.16;100.00;59067.41;4978128;28;20279;-70
2023/08/19 04:55:04;;;;;;;8.00;5.15;;;;;;;-143.16;100.00;59067.41;5009509;28;20248;-70
2023/08/19 04:57:30;;;;;;;5.80;4.70;;;;;;;-143.16;100.00;59067.41;4996718;28;20671;-70
2023/08/19 04:59:57;;;;;;;8.65;4.78;;;;;;;-143.16;100.00;59067.41;4990602;28;20251;-71
2023/08/19 05:02:23;;;;;;;6.47;4.47;;;;;;;-143.16;100.00;59067.41;4989961;28;20197;-71
2023/08/19 05:04:50;;;;;;;5.32;4.30;;;;;;;-143.16;100.00;59067.41;5009953;28;20200;-70
2023/08/19 05:07:16;;;;;;;9.27;4.80;;;;;;;-143.16;100.00;59067.41;4990553;28;20205;-70
2023/08/19 05:09:43;;;;;;;7.43;4.43;;;;;;;-143.16;100.00;59067.41;4991710;28;20233;-70
2023/08/19 05:12:09;;;;;;;7.13;4.40;;;;;;;-143.16;100.00;59067.41;5010727;28;20283;-71
2023/08/19 05:14:35;;;;;;;8.35;4.90;;;;;;;-143.16;100.00;59067.41;4996069;28;20241;-70
2023/08/19 05:17:02;;;;;;;9.40;4.90;;;;;;;-143.16;100.00;59067.41;4990399;28;20205;-70
2023/08/19 05:19:28;;;;;;;7.43;4.78;;;;;;;-143.16;100.00;59067.41;4990079;28;20743;-70
2023/08/19 05:21:55;;;;;;;8.52;4.13;;;;;;;-143.16;100.00;59067.41;5003734;28;20200;-70
2023/08/19 05:24:21;;;;;;;5.63;4.20;;;;;;;-143.16;100.00;59067.41;5005624;28;20287;-71
2023/08/19 05:26:47;;;;;;;7.10;4.40;;;;;;;-143.16;100.00;59067.41;4990460;28;20209;-70
2023/08/19 05:29:16;;;;;;;6.50;3.97;;;;;;;-143.16;100.00;59067.41;4990153;28;20229;-71
2023/08/19 05:31:42;;;;;;;10.57;4.75;;;;;;;-143.16;100.00;59067.41;4998887;28;20295;-71
2023/08/19 05:34:09;;;;;;;8.48;4.47;;;;;;;-143.16;100.00;59067.41;5006777;28;20226;-68
2023/08/19 05:36:35;;;;;;;8.05;4.50;;;;;;;-143.16;100.00;59067.41;4990096;28;20204;-71
2023/08/19 05:39:03;;;;;;;7.88;4.13;;;;;;;-143.16;100.00;59067.41;4990195;28;20201;-70
2023/08/19 05:41:29;;;;;;;8.65;4.60;;;;;;;-143.16;100.00;59067.41;4993419;28;20600;-72
2023/08/19 05:43:56;;;;;;;6.88;4.40;;;;;;;-143.16;100.00;59067.41;5009068;28;20586;-71
2023/08/19 05:46:22;;;;;;;5.68;4.28;;;;;;;-143.16;100.00;59067.41;4997739;28;20208;-70
2023/08/19 05:48:49;;;;;;;11.07;4.53;;;;;;;-143.16;100.00;59067.41;4990248;28;20691;-68
2023/08/19 05:51:15;;;;;;;7.35;4.50;;;;;;;-143.16;100.00;59067.41;4978529;28;20224;-70
2023/08/19 05:53:42;;;;;;;8.95;4.53;;;;;;;-143.16;100.00;59067.41;5009487;28;20204;-73
2023/08/19 05:56:08;;;;;;;9.57;4.05;;;;;;;-143.16;100.00;59067.41;4999191;28;20588;-70
2023/08/19 05:58:35;;;;;;;9.35;4.10;;;;;;;-143.16;100.00;59067.41;4990290;28;20201;-71
2023/08/19 06:01:06;;;;;;;9.50;5.57;;;;;;;-143.16;100.00;59067.41;4989323;28;20217;-70
2023/08/19 06:03:33;;;;;;;10.07;4.65;;;;;;;-143.16;100.00;59067.41;5003675;28;20684;-70
2023/08/19 06:06:05;;;;;;;11.85;5.85;;;;;;;-143.16;100.00;59067.41;5002032;28;20739;-69
2023/08/19 06:08:32;;;;;;;12.35;4.32;;;;;;;-143.16;100.00;59067.41;4993620;28;20247;-70
2023/08/19 06:11:05;;;;;;;12.25;4.40;;;;;;;-143.16;100.00;59067.41;5007674;28;20232;-70
2023/08/19 06:13:32;;;;;;;10.30;4.82;;;;;;;-143.16;100.00;59067.41;4990096;28;20669;-67
2023/08/19 06:15:58;;;;;;;9.25;4.72;;;;;;;-143.16;100.00;59067.41;4993240;28;20232;-70
2023/08/19 06:18:24;;;;;;;7.45;4.20;;;;;;;-143.16;100.00;59067.41;4983554;28;20205;-71
2023/08/19 06:20:52;;;;;;;8.05;4.80;;;;;;;-143.16;100.00;59067.41;5003784;28;20262;-72
2023/08/19 06:23:19;;;;;;;8.82;5.00;;;;;;;-143.16;100.00;59067.41;4983788;28;20208;-71
2023/08/19 06:25:48;;;;;;;10.45;4.78;;;;;;;-143.16;100.00;59067.41;4976238;28;20204;-71
2023/08/19 06:28:16;;;;;;;5.85;4.30;;;;;;;-143.16;100.00;59067.41;4992898;28;20201;-70
2023/08/19 06:30:43;;;;;;;7.25;4.45;;;;;;;-143.16;100.00;59067.41;4998575;28;20220;-71
2023/08/19 06:33:10;;;;;;;14.30;4.90;;;;;;;-143.16;100.00;59067.41;5009926;28;20581;-71
2023/08/19 06:35:37;;;;;;;8.70;4.38;;;;;;;-143.16;100.00;59067.41;4992904;28;20225;-71
2023/08/19 06:38:12;;;;;;;5.68;4.63;;;;;;;-143.16;100.00;59067.41;5006704;28;20200;-70
2023/08/19 06:40:40;;;;;;;7.28;4.65;;;;;;;-143.16;100.00;59067.41;5006333;28;20228;-72
2023/08/19 06:43:09;;;;;;;5.45;4.35;;;;;;;-143.16;100.00;59067.41;4992751;28;20201;-70
2023/08/19 06:45:36;;;;;;;7.85;4.95;;;;;;;-143.16;100.00;59067.41;4992831;28;20193;-71
2023/08/19 06:48:03;;;;;;;7.75;4.95;;;;;;;-143.16;100.00;59067.41;5003012;28;20204;-70
2023/08/19 06:50:29;;;;;;;13.75;4.43;;;;;;;-143.16;100.00;59067.41;5007666;28;20246;-72
2023/08/19 06:52:56;;;;;;;8.40;4.85;;;;;;;-143.16;100.00;59067.41;4992500;28;20236;-71
2023/08/19 06:55:23;;;;;;;6.63;4.53;;;;;;;-143.16;100.00;59067.41;4992881;28;20220;-70
2023/08/19 06:58:02;;;;;;;6.50;4.32;;;;;;;-143.16;100.00;59067.41;4995206;28;20210;-73
2023/08/19 07:00:30;;;;;;;7.50;4.60;;;;;;;-143.16;100.00;59067.41;5011720;28;20224;-70
2023/08/19 07:02:57;;;;;;;9.45;5.47;;;;;;;-143.16;100.00;59067.41;4994962;28;20204;-70
2023/08/19 07:05:26;;;;;;;9.25;4.78;;;;;;;-143.16;100.00;59067.41;4992310;28;20204;-72
2023/08/19 07:07:55;;;;;;;7.18;4.32;;;;;;;-143.16;100.00;59067.41;4991511;28;20201;-71
2023/08/19 07:10:23;;;;;;;8.52;4.45;;;;;;;-143.16;100.00;59067.41;5003870;28;20224;-72
2023/08/19 07:12:49;;;;;;;7.43;5.50;;;;;;;-143.16;100.00;59067.41;5008242;28;20687;-70
2023/08/19 07:15:16;;;;;;;8.18;5.00;;;;;;;-143.16;100.00;59067.41;5008504;28;20216;-71
2023/08/19 07:17:44;;;;;;;9.82;5.55;;;;;;;-143.16;100.00;59067.41;4991138;28;20287;-69
2023/08/19 07:20:15;;;;;;;11.98;5.00;;;;;;;-143.16;100.00;59067.41;4991578;28;20280;-70
2023/08/19 07:22:47;;;;;;;9.15;4.78;;;;;;;-143.16;100.00;59067.41;4998852;28;20208;-70
2023/08/19 07:25:14;;;;;;;8.68;4.72;;;;;;;-143.16;100.00;59067.41;5008788;28;20204;-70
2023/08/19 07:27:45;;;;;;;12.32;5.07;;;;;;;-143.16;100.00;59067.41;4992165;28;20211;-73
2023/08/19 07:30:12;;;;;;;10.45;4.88;;;;;;;-143.16;100.00;59067.41;4991365;28;20627;-71
2023/08/19 07:32:39;;;;;;;13.27;5.38;;;;;;;-143.16;100.00;59067.41;4994157;28;20207;-70
2023/08/19 07:35:06;;;;;;;13.25;4.45;;;;;;;-143.16;100.00;59067.41;4993008;28;20311;-70
2023/08/19 07:37:33;;;;;;;8.48;4.75;;;;;;;-143.16;100.00;59067.41;4998071;28;20201;-71
2023/08/19 07:40:00;;;;;;;13.35;4.85;;;;;;;-143.16;100.00;59067.41;4991235;28;20799;-70
2023/08/19 07:42:29;;;;;;;9.85;4.47;;;;;;;-143.16;100.00;59067.41;4991035;28;20204;-72
2023/08/19 07:44:56;;;;;;;9.50;4.13;;;;;;;-143.16;100.00;59067.41;5008648;28;20200;-70
2023/08/19 07:47:22;;;;;;;6.88;4.20;;;;;;;-143.16;100.00;59067.41;5007349;28;20661;-70
2023/08/19 07:49:48;;;;;;;9.00;4.03;;;;;;;-143.16;100.00;59067.41;5006017;28;20739;-71
2023/08/19 07:52:15;;;;;;;9.02;4.20;;;;;;;-143.16;100.00;59067.41;4999855;28;20200;-70
2023/08/19 07:54:41;;;;;;;7.45;3.78;;;;;;;-143.16;100.00;59067.41;4991636;28;20243;-71
2023/08/19 07:57:08;;;;;;;7.10;3.78;;;;;;;-143.16;100.00;59067.41;4991443;28;20201;-71
2023/08/19 07:59:34;;;;;;;6.93;3.83;;;;;;;-143.16;100.00;59067.41;5000556;28;20216;-73
2023/08/19 08:02:01;;;;;;;4.32;3.65;;;;;;;-143.16;100.00;59067.41;5009750;28;20299;-70
2023/08/19 08:04:28;;;;;;;5.75;3.78;;;;;;;-143.16;100.00;59067.41;4990943;28;20637;-70
2023/08/19 08:06:55;;;;;;;12.73;4.00;;;;;;;-143.16;100.00;59067.41;4974121;28;20209;-72
2023/08/19 08:09:21;;;;;;;8.25;3.60;;;;;;;-143.16;100.00;59067.41;4995325;28;20235;-70
2023/08/19 08:11:48;;;;;;;7.18;3.95;;;;;;;-143.16;100.00;59067.41;5010585;28;20279;-70
2023/08/19 08:14:16;;;;;;;5.90;3.67;;;;;;;-143.16;100.00;59067.41;4991534;28;20216;-72
2023/08/19 08:16:42;;;;;;;7.57;3.20;;;;;;;-143.16;100.00;59067.41;4990984;28;20704;-70
2023/08/19 08:19:09;;;;;;;7.55;3.30;;;;;;;-143.16;100.00;59067.41;4989765;28;20204;-71
2023/08/19 08:21:35;;;;;;;5.13;3.35;;;;;;;-143.16;100.00;59067.41;4986833;28;20650;-71
2023/08/19 08:24:03;;;;;;;6.70;3.70;;;;;;;-143.16;100.00;59067.41;5001728;28;20201;-71
2023/08/19 08:26:29;;;;;;;6.18;3.70;;;;;;;-143.16;100.00;59067.41;4991176;28;20205;-73
2023/08/19 08:28:55;;;;;;;5.15;3.20;;;;;;;-143.16;100.00;59067.41;4972781;28;20200;-71
2023/08/19 08:31:22;;;;;;;7.97;3.60;;;;;;;-143.16;100.00;59067.41;5003871;28;20196;-71
2023/08/19 08:33:48;;;;;;;4.13;3.58;;;;;;;-143.16;100.00;59067.41;5002986;28;20812;-71
2023/08/19 08:36:15;;;;;;;6.60;3.70;;;;;;;-143.16;100.00;59067.41;4990535;28;20739;-70
2023/08/19 08:38:41;;;;;;;4.45;3.30;;;;;;;-143.16;100.00;59067.41;4990746;28;20208;-70
2023/08/19 08:41:08;;;;;;;8.70;3.45;;;;;;;-143.16;100.00;59067.41;4997746;28;20216;-70
2023/08/19 08:43:37;;;;;;;4.20;3.50;;;;;;;-143.16;100.00;59067.41;5010093;28;20206;-71
2023/08/19 08:46:03;;;;;;;5.40;3.50;;;;;;;-143.16;100.00;59067.41;4993060;28;20713;-71
2023/08/19 08:48:32;;;;;;;7.50;3.63;;;;;;;-143.16;100.00;59067.41;4994975;28;20266;-71
2023/08/19 08:50:59;;;;;;;5.28;3.65;;;;;;;-143.16;100.00;59067.41;4996311;28;20243;-71
2023/08/19 08:53:27;;;;;;;6.07;3.40;;;;;;;-143.16;100.00;59067.41;4992733;28;20200;-71
2023/08/19 08:55:55;;;;;;;5.57;3.55;;;;;;;-143.16;100.00;59067.41;4994449;28;20212;-71
2023/08/19 08:58:21;;;;;;;6.68;3.50;;;;;;;-143.16;100.00;59067.41;4990126;28;20657;-71
2023/08/19 09:00:49;;;;;;;4.82;3.65;;;;;;;-143.16;100.00;59067.41;4989297;28;20311;-72
2023/08/19 09:03:19;;;;;;;4.93;3.50;;;;;;;-143.16;100.00;59067.41;5009072;28;20211;-73
2023/08/19 09:05:50;;;;;;;5.28;3.22;;;;;;;-143.16;100.00;59067.41;4995512;28;20192;-71
2023/08/19 09:08:23;;;;;;;9.88;3.97;;;;;;;-143.16;100.00;59067.41;4990328;28;20215;-71
2023/08/19 09:10:49;;;;;;;7.78;3.97;;;;;;;-143.16;100.00;59067.41;4989868;28;20230;-70
2023/08/19 09:13:21;;;;;;;7.50;3.90;;;;;;;-143.16;100.00;59067.41;5003407;28;20211;-72
2023/08/19 09:15:47;;;;;;;4.97;3.50;;;;;;;-143.16;100.00;59067.41;5003182;28;20224;-71
2023/08/19 09:18:16;;;;;;;6.82;3.70;;;;;;;-143.16;100.00;59067.41;4990268;28;20266;-73
2023/08/19 09:20:44;;;;;;;6.00;4.05;;;;;;;-143.16;100.00;59067.41;4990177;28;20307;-71
2023/08/19 09:23:10;;;;;;;6.03;4.07;;;;;;;-143.16;100.00;59067.41;4998781;28;20219;-73
2023/08/19 09:25:37;;;;;;;7.38;3.55;;;;;;;-143.16;100.00;59067.41;5004468;28;20649;-70
2023/08/19 09:28:04;;;;;;;6.28;3.90;;;;;;;-143.16;100.00;59067.41;4972820;28;20589;-71
2023/08/19 09:30:35;;;;;;;5.90;3.72;;;;;;;-143.16;100.00;59067.41;4989997;28;20221;-73
2023/08/19 09:33:02;;;;;;;7.15;3.78;;;;;;;-143.16;100.00;59067.41;4994311;28;20581;-70
2023/08/19 09:35:36;;;;;;;5.93;4.03;;;;;;;-143.16;100.00;59067.41;5007324;28;20212;-70
2023/08/19 09:38:20;;;;;;;8.43;4.70;;;;;;;-143.16;100.00;59067.41;4998900;28;20212;-71
2023/08/19 09:40:57;;;;;;;8.13;4.10;;;;;;;-143.16;100.00;59067.41;4991785;28;20300;-71
2023/08/19 09:43:23;;;;;;;6.82;3.90;;;;;;;-143.16;100.00;59067.41;4996865;28;20207;-71
2023/08/19 09:45:50;;;;;;;7.30;4.00;;;;;;;-143.16;100.00;59067.41;5009922;28;20196;-72
2023/08/19 09:48:16;;;;;;;7.05;4.22;;;;;;;-143.16;100.00;59067.41;5010858;28;20204;-71
2023/08/19 09:50:46;;;;;;;8.57;3.95;;;;;;;-143.16;100.00;59067.41;4993725;28;20221;-71
2023/08/19 09:53:15;;;;;;;8.23;4.13;;;;;;;-143.16;100.00;59067.41;4993567;28;20213;-71
2023/08/19 09:55:48;;;;;;;7.43;4.22;;;;;;;-143.16;100.00;59067.41;5000385;28;20714;-71
2023/08/19 09:58:15;;;;;;;5.93;3.67;;;;;;;-143.16;100.00;59067.41;5010815;28;20578;-71
2023/08/19 10:00:42;;;;;;;7.65;4.07;;;;;;;-143.16;100.00;59067.41;4993191;28;20693;-71
2023/08/19 10:03:09;;;;;;;7.35;4.10;;;;;;;-143.16;100.00;59067.41;4992952;28;20208;-71
2023/08/19 10:05:41;;;;;;;7.20;4.10;;;;;;;-143.16;100.00;59067.41;4996260;28;20262;-71
2023/08/19 10:08:13;;;;;;;5.75;4.15;;;;;;;-143.16;100.00;59067.41;5012818;28;20208;-71
2023/08/19 10:10:44;;;;;;;7.38;4.55;;;;;;;-143.16;100.00;59067.41;5030354;23;20224;-72
2023/08/19 10:13:12;;;;;;;6.30;4.20;;;;;;;-143.16;100.00;59067.41;5011989;28;20291;-72
2023/08/19 10:15:41;;;;;;;7.30;3.92;;;;;;;-143.16;100.00;59067.41;5006732;28;20218;-72
2023/08/19 10:18:16;;;;;;;7.18;4.43;;;;;;;-143.16;100.00;59067.41;4996365;28;20208;-72
2023/08/19 10:20:45;;;;;;;7.25;4.65;;;;;;;-143.16;100.00;59067.41;5006647;28;20579;-72
2023/08/19 10:23:14;;;;;;;10.10;4.28;;;;;;;-143.16;100.00;59067.41;4992679;28;20374;-72
2023/08/19 10:25:42;;;;;;;6.53;3.90;;;;;;;-143.16;100.00;59067.41;4992547;28;20271;-73
2023/08/19 10:28:21;;;;;;;5.95;3.85;;;;;;;-143.16;100.00;59067.41;5009651;28;20220;-72
2023/08/19 10:31:10;;;;;;;6.85;4.22;;;;;;;-143.16;100.00;59067.41;4997940;28;20252;-72
2023/08/19 10:33:44;;;;;;;6.03;4.18;;;;;;;-143.16;100.00;59067.41;4992708;28;20205;-72
2023/08/19 10:36:15;;;;;;;6.13;4.05;;;;;;;-143.16;100.00;59067.41;4992310;28;20220;-72
2023/08/19 10:38:48;;;;;;;6.72;4.45;;;;;;;-143.16;100.00;59067.41;4995058;28;20196;-72
2023/08/19 10:41:18;;;;;;;7.32;4.43;;;;;;;-143.16;100.00;59067.41;5002087;28;20221;-72
2023/08/19 10:43:54;;;;;;;6.28;4.40;;;;;;;-143.16;100.00;59067.41;4992526;28;20223;-72
2023/08/19 10:46:41;;;;;;;7.05;4.32;;;;;;;-143.16;100.00;59067.41;4983253;28;20204;-71
2023/08/19 10:49:11;;;;;;;5.68;3.85;;;;;;;-143.16;100.00;59067.41;4993766;28;20707;-72
2023/08/19 10:52:00;;;;;;;6.90;4.55;;;;;;;-143.16;100.00;59067.41;4998743;28;20227;-72
2023/08/19 10:54:35;;;;;;;9.38;4.40;;;;;;;-143.16;100.00;59067.41;4992524;28;20224;-72
2023/08/19 10:57:14;;;;;;;9.70;4.70;;;;;;;-143.16;100.00;59067.41;4992000;28;20744;-72
2023/08/19 10:59:43;;;;;;;8.38;4.30;;;;;;;-143.16;100.00;59067.41;5005390;28;20227;-72
2023/08/19 11:02:11;;;;;;;7.60;4.75;;;;;;;-143.16;100.00;59067.41;4984952;28;20270;-72
2023/08/19 11:04:47;;;;;;;10.35;4.75;;;;;;;-143.16;100.00;59067.41;4975048;28;20200;-73
2023/08/19 11:07:15;;;;;;;5.50;4.53;;;;;;;-143.16;100.00;59067.41;4991931;28;20208;-72
2023/08/19 11:09:44;;;;;;;7.03;4.57;;;;;;;-143.16;100.00;59067.41;5007237;28;20299;-72
2023/08/19 11:12:14;;;;;;;7.03;4.60;;;;;;;-143.16;100.00;59067.41;5001882;28;20212;-72
2023/08/19 11:14:45;;;;;;;6.15;4.72;;;;;;;-143.16;100.00;59067.41;4991728;28;20580;-72